createdAt,value
2023-02-13T00:00:38.871Z,40.30
2023-02-13T00:03:07.015Z,40.60
2023-02-13T00:05:35.062Z,40.57
2023-02-13T00:08:03.049Z,42.17
2023-02-13T00:10:31.033Z,41.33
2023-02-13T00:12:59.050Z,43.93
2023-02-13T00:15:27.116Z,44.33
2023-02-13T00:17:56.434Z,46.10
2023-02-13T00:20:24.452Z,45.03
2023-02-13T00:22:52.408Z,45.97
2023-02-13T00:25:20.508Z,45.40
2023-02-13T00:27:48.469Z,49.30
2023-02-13T00:30:17.316Z,47.80
2023-02-13T00:32:45.270Z,48.40
2023-02-13T00:35:14.590Z,49.03
2023-02-13T00:37:42.526Z,49.47
2023-02-13T00:40:11.457Z,48.67
2023-02-13T00:42:39.481Z,47.83
2023-02-13T00:45:07.910Z,48.00
2023-02-13T00:47:35.870Z,46.80
2023-02-13T00:50:03.828Z,46.40
2023-02-13T00:52:33.195Z,45.57
2023-02-13T00:55:01.190Z,48.23
2023-02-13T00:57:29.326Z,51.87
2023-02-13T00:59:57.273Z,49.43
2023-02-13T01:02:25.396Z,50.43
2023-02-13T01:04:53.388Z,50.40
2023-02-13T01:07:21.325Z,49.83
2023-02-13T01:09:50.600Z,49.90
2023-02-13T01:12:18.540Z,50.33
2023-02-13T01:14:46.506Z,49.20
2023-02-13T01:17:14.492Z,48.40
2023-02-13T01:19:42.587Z,48.63
2023-02-13T01:22:10.809Z,48.40
2023-02-13T01:24:38.774Z,46.53
2023-02-13T01:27:08.180Z,49.83
2023-02-13T01:29:36.153Z,47.03
2023-02-13T01:32:05.204Z,46.87
2023-02-13T01:34:33.548Z,45.80
2023-02-13T01:37:01.562Z,45.87
2023-02-13T01:39:29.636Z,44.40
2023-02-13T01:41:57.612Z,44.00
2023-02-13T01:44:50.070Z,44.97
2023-02-13T01:47:23.381Z,43.93
2023-02-13T01:49:54.178Z,46.00
2023-02-13T01:52:22.222Z,43.73
2023-02-13T01:54:50.252Z,43.63
2023-02-13T01:57:21.936Z,43.83
2023-02-13T01:59:58.611Z,44.83
2023-02-13T02:02:27.371Z,44.93
2023-02-13T02:04:55.408Z,43.00
2023-02-13T02:07:26.252Z,43.50
2023-02-13T02:09:57.765Z,43.80
2023-02-13T02:12:30.447Z,44.57
2023-02-13T02:15:02.521Z,44.73
2023-02-13T02:17:30.501Z,42.80
2023-02-13T02:20:07.449Z,45.30
2023-02-13T02:23:26.278Z,43.70
2023-02-13T02:26:38.612Z,45.30
2023-02-13T02:29:26.063Z,45.00
2023-02-13T02:32:18.995Z,45.47
2023-02-13T02:34:55.577Z,45.97
2023-02-13T02:37:39.683Z,48.17
2023-02-13T02:40:19.915Z,48.43
2023-02-13T02:43:00.870Z,50.37
2023-02-13T02:45:37.962Z,46.43
2023-02-13T02:48:29.950Z,46.77
2023-02-13T02:51:03.862Z,45.77
2023-02-13T02:53:39.377Z,44.87
2023-02-13T02:56:13.815Z,43.70
2023-02-13T02:59:05.200Z,43.63
2023-02-13T03:01:52.294Z,43.20
2023-02-13T03:04:43.458Z,42.80
2023-02-13T03:07:16.119Z,43.07
2023-02-13T03:10:05.389Z,43.43
2023-02-13T03:12:56.844Z,43.87
2023-02-13T03:15:27.696Z,42.27
2023-02-13T03:18:13.722Z,43.43
2023-02-13T03:21:06.465Z,44.00
2023-02-13T03:23:45.783Z,43.13
2023-02-13T03:26:50.358Z,43.67
2023-02-13T03:29:49.815Z,42.00
2023-02-13T03:32:26.208Z,40.70
2023-02-13T03:35:21.190Z,36.37
2023-02-13T03:37:55.591Z,39.47
2023-02-13T03:40:29.722Z,39.13
2023-02-13T03:43:06.030Z,37.27
2023-02-13T03:45:57.305Z,36.80
2023-02-13T03:48:46.610Z,37.80
2023-02-13T03:51:22.317Z,35.83
2023-02-13T03:53:56.607Z,35.43
2023-02-13T03:56:44.462Z,35.27
2023-02-13T03:59:20.687Z,34.60
2023-02-13T04:01:58.412Z,37.30
2023-02-13T04:04:34.767Z,36.80
2023-02-13T04:07:06.177Z,37.57
2023-02-13T04:09:38.388Z,37.93
2023-02-13T04:12:13.614Z,37.77
2023-02-13T04:14:46.624Z,36.07
2023-02-13T04:17:19.954Z,37.47
2023-02-13T04:19:48.335Z,38.10
2023-02-13T04:22:16.712Z,38.87
2023-02-13T04:24:46.685Z,38.00
2023-02-13T04:27:16.469Z,37.23
2023-02-13T04:29:44.910Z,36.77
2023-02-13T04:32:14.239Z,35.37
2023-02-13T04:34:42.261Z,36.93
2023-02-13T04:37:10.235Z,34.27
2023-02-13T04:39:38.199Z,35.53
2023-02-13T04:42:07.552Z,34.13
2023-02-13T04:44:35.535Z,34.37
2023-02-13T04:47:03.503Z,33.97
2023-02-13T04:49:31.434Z,31.60
2023-02-13T04:51:59.407Z,30.60
2023-02-13T04:54:27.506Z,30.23
2023-02-13T04:56:55.442Z,30.60
2023-02-13T04:59:24.899Z,32.23
2023-02-13T05:01:53.065Z,35.90
2023-02-13T05:04:21.078Z,37.37
2023-02-13T05:06:49.062Z,38.10
2023-02-13T05:09:17.044Z,39.40
2023-02-13T05:11:45.048Z,37.50
2023-02-13T05:14:13.274Z,36.33
2023-02-13T05:16:42.634Z,36.53
2023-02-13T05:19:11.222Z,36.40
2023-02-13T05:21:56.427Z,37.20
2023-02-13T05:24:24.513Z,38.13
2023-02-13T05:26:52.516Z,38.57
2023-02-13T05:29:19.644Z,38.33
2023-02-13T05:31:49.925Z,40.10
2023-02-13T05:34:18.215Z,40.60
2023-02-13T05:36:46.315Z,39.37
2023-02-13T05:39:15.259Z,41.27
2023-02-13T05:41:43.376Z,42.03
2023-02-13T05:44:11.605Z,41.80
2023-02-13T05:46:40.692Z,43.23
2023-02-13T05:49:11.326Z,41.67
2023-02-13T05:51:39.404Z,40.37
2023-02-13T05:54:07.381Z,38.77
2023-02-13T05:56:35.352Z,39.47
2023-02-13T05:59:03.324Z,41.27
2023-02-13T06:01:31.344Z,39.57
2023-02-13T06:04:01.436Z,39.57
2023-02-13T06:06:32.224Z,39.27
2023-02-13T06:09:00.164Z,41.60
2023-02-13T06:11:28.601Z,38.87
2023-02-13T06:13:56.596Z,39.50
2023-02-13T06:16:24.667Z,36.33
2023-02-13T06:18:52.694Z,38.10
2023-02-13T06:21:21.255Z,37.50
2023-02-13T06:23:51.288Z,39.57
2023-02-13T06:26:19.851Z,39.77
2023-02-13T06:28:48.039Z,37.80
2023-02-13T06:31:16.066Z,38.23
2023-02-13T06:33:44.163Z,39.10
2023-02-13T06:36:12.121Z,39.03
2023-02-13T06:38:40.130Z,40.73
2023-02-13T06:41:09.909Z,39.57
2023-02-13T06:43:39.939Z,40.73
2023-02-13T06:46:09.480Z,37.87
2023-02-13T06:48:37.529Z,39.70
2023-02-13T06:51:05.983Z,39.17
2023-02-13T06:53:33.992Z,41.33
2023-02-13T06:56:06.131Z,40.90
2023-02-13T06:58:35.975Z,39.70
2023-02-13T07:01:04.368Z,38.47
2023-02-13T07:03:32.570Z,37.40
2023-02-13T07:06:00.534Z,36.07
2023-02-13T07:08:29.597Z,35.30
2023-02-13T07:10:58.385Z,35.13
2023-02-13T07:13:27.395Z,33.47
2023-02-13T07:15:58.299Z,32.40
2023-02-13T07:18:26.892Z,32.50
2023-02-13T07:20:55.232Z,31.03
2023-02-13T07:23:23.595Z,30.43
2023-02-13T07:25:51.623Z,30.43
2023-02-13T07:28:19.998Z,31.53
2023-02-13T07:30:48.062Z,30.53
2023-02-13T07:33:17.594Z,31.80
2023-02-13T07:35:47.913Z,33.10
2023-02-13T07:38:15.966Z,31.23
2023-02-13T07:40:44.176Z,28.47
2023-02-13T07:43:13.540Z,32.53
2023-02-13T07:45:41.555Z,30.07
2023-02-13T07:48:09.615Z,29.87
2023-02-13T07:50:38.938Z,27.00
2023-02-13T07:53:06.998Z,29.63
2023-02-13T07:55:35.062Z,29.33
2023-02-13T07:58:03.209Z,27.50
2023-02-13T08:00:31.197Z,27.57
2023-02-13T08:03:01.130Z,28.30
2023-02-13T08:05:33.142Z,28.97
2023-02-13T08:08:02.795Z,26.23
2023-02-13T08:10:44.805Z,29.10
2023-02-13T08:13:14.884Z,27.87
2023-02-13T08:15:44.451Z,28.43
2023-02-13T08:18:12.668Z,25.77
2023-02-13T08:20:40.714Z,26.37
2023-02-13T08:23:12.745Z,26.80
2023-02-13T08:25:43.660Z,28.30
2023-02-13T08:28:11.828Z,26.80
2023-02-13T08:30:41.025Z,25.60
2023-02-13T08:33:09.017Z,26.23
2023-02-13T08:35:37.006Z,25.77
2023-02-13T08:38:06.063Z,24.57
2023-02-13T08:40:35.500Z,26.73
2023-02-13T08:43:05.957Z,26.17
2023-02-13T08:45:34.666Z,27.20
2023-02-13T08:48:04.070Z,26.67
2023-02-13T08:50:33.648Z,30.65
2023-02-13T08:53:02.575Z,26.63
2023-02-13T08:55:32.198Z,27.53
2023-02-13T08:58:02.773Z,27.37
2023-02-13T09:00:31.320Z,28.90
2023-02-13T09:03:02.474Z,27.83
2023-02-13T09:05:31.706Z,27.93
2023-02-13T09:08:02.763Z,28.53
2023-02-13T09:10:31.336Z,28.50
2023-02-13T09:12:59.405Z,28.03
2023-02-13T09:15:28.817Z,31.70
2023-02-13T09:17:56.893Z,34.67
2023-02-13T09:20:24.919Z,33.53
2023-02-13T09:22:52.934Z,30.67
2023-02-13T09:25:23.277Z,32.43
2023-02-13T09:27:51.268Z,29.30
2023-02-13T09:30:24.133Z,30.07
2023-02-13T09:32:54.479Z,29.97
2023-02-13T09:35:23.457Z,31.03
2023-02-13T09:37:51.576Z,31.10
2023-02-13T09:40:24.526Z,30.13
2023-02-13T09:42:53.969Z,31.43
2023-02-13T09:45:23.254Z,30.30
2023-02-13T09:47:53.294Z,31.83
2023-02-13T09:50:25.654Z,28.47
2023-02-13T09:52:56.454Z,30.17
2023-02-13T09:55:28.509Z,26.77
2023-02-13T09:58:04.372Z,26.50
2023-02-13T10:00:35.678Z,25.50
2023-02-13T10:03:29.458Z,25.67
2023-02-13T10:06:09.009Z,23.97
2023-02-13T10:08:50.770Z,22.90
2023-02-13T10:11:45.724Z,20.70
2023-02-13T10:14:18.589Z,20.53
2023-02-13T10:16:52.479Z,19.50
2023-02-13T10:19:33.298Z,18.23
2023-02-13T10:22:06.690Z,17.97
2023-02-13T10:24:40.057Z,20.07
2023-02-13T10:27:21.770Z,23.53
2023-02-13T10:30:06.735Z,21.50
2023-02-13T10:32:52.070Z,21.70
2023-02-13T10:35:30.724Z,20.87
2023-02-13T10:38:00.667Z,22.87
2023-02-13T10:40:33.796Z,25.50
2023-02-13T10:43:08.617Z,26.80
2023-02-13T10:45:56.333Z,25.13
2023-02-13T10:48:35.848Z,25.63
2023-02-13T10:51:14.105Z,24.63
2023-02-13T10:53:57.580Z,26.93
2023-02-13T10:56:30.483Z,24.77
2023-02-13T10:59:32.159Z,26.70
2023-02-13T11:02:09.533Z,25.03
2023-02-13T11:04:41.578Z,27.83
2023-02-13T11:07:16.224Z,25.97
2023-02-13T11:09:47.572Z,27.83
2023-02-13T11:12:26.048Z,24.60
2023-02-13T11:14:58.546Z,25.67
2023-02-13T11:17:31.527Z,26.50
2023-02-13T11:20:02.034Z,24.43
2023-02-13T11:22:35.664Z,25.33
2023-02-13T11:25:07.620Z,27.73
2023-02-13T11:27:38.661Z,29.17
2023-02-13T11:30:09.126Z,29.33
2023-02-13T11:32:37.640Z,29.00
2023-02-13T11:35:29.139Z,24.23
2023-02-13T11:38:21.285Z,27.77
2023-02-13T11:40:53.076Z,26.00
2023-02-13T11:43:38.491Z,26.93
2023-02-13T11:46:09.565Z,27.93
2023-02-13T11:48:37.865Z,28.90
2023-02-13T11:51:06.486Z,29.10
2023-02-13T11:53:39.452Z,27.87
2023-02-13T11:56:11.046Z,27.57
2023-02-13T11:58:39.619Z,27.13
2023-02-13T12:01:29.389Z,27.07
2023-02-13T12:04:06.011Z,28.27
2023-02-13T12:06:39.815Z,26.30
2023-02-13T12:09:15.551Z,28.07
2023-02-13T12:11:47.211Z,27.03
2023-02-13T12:14:21.588Z,30.17
2023-02-13T12:16:52.753Z,23.70
2023-02-13T12:19:23.933Z,26.87
2023-02-13T12:22:15.311Z,25.10
2023-02-13T12:25:15.842Z,26.00
2023-02-13T12:27:50.248Z,28.00
2023-02-13T12:30:47.098Z,26.40
2023-02-13T12:33:30.348Z,26.53
2023-02-13T12:36:05.711Z,25.10
2023-02-13T12:38:47.186Z,23.27
2023-02-13T12:41:20.453Z,24.37
2023-02-13T12:44:09.754Z,22.23
2023-02-13T12:46:48.449Z,22.37
2023-02-13T12:49:34.855Z,23.53
2023-02-13T12:52:18.202Z,27.40
2023-02-13T12:54:59.923Z,27.67
2023-02-13T12:57:44.430Z,25.77
2023-02-13T13:00:35.893Z,28.27
2023-02-13T13:03:26.918Z,26.73
2023-02-13T13:06:25.185Z,25.93
2023-02-13T13:09:20.646Z,29.10
2023-02-13T13:12:11.618Z,26.80
2023-02-13T13:14:48.893Z,30.33
2023-02-13T13:17:27.977Z,29.63
2023-02-13T13:20:04.570Z,30.20
2023-02-13T13:22:39.397Z,32.43
2023-02-13T13:25:19.655Z,25.80
2023-02-13T13:27:52.163Z,27.70
2023-02-13T13:30:25.144Z,24.27
2023-02-13T13:32:58.393Z,23.90
2023-02-13T13:35:26.683Z,23.10
2023-02-13T13:38:03.380Z,21.43
2023-02-13T13:40:40.760Z,20.90
2023-02-13T13:43:20.583Z,21.40
2023-02-13T13:45:59.521Z,23.20
2023-02-13T13:48:57.855Z,21.27
2023-02-13T13:51:29.888Z,22.27
2023-02-13T13:54:19.976Z,20.37
2023-02-13T13:57:07.126Z,16.33
2023-02-13T13:59:59.293Z,16.40
2023-02-13T14:02:43.661Z,16.93
2023-02-13T14:05:31.261Z,17.80
2023-02-13T14:08:01.683Z,18.27
2023-02-13T14:11:09.621Z,16.80
2023-02-13T14:13:39.893Z,17.10
2023-02-13T14:16:11.522Z,18.23
2023-02-13T14:18:47.835Z,18.13
2023-02-13T14:21:24.728Z,20.43
2023-02-13T14:23:53.798Z,16.03
2023-02-13T14:26:37.777Z,18.13
2023-02-13T14:29:24.151Z,16.20
2023-02-13T14:32:03.545Z,15.23
2023-02-13T14:34:35.080Z,16.10
2023-02-13T14:37:24.583Z,15.90
2023-02-13T14:40:27.018Z,14.23
2023-02-13T14:42:58.856Z,12.23
2023-02-13T14:45:32.301Z,14.13
2023-02-13T14:48:06.689Z,12.90
2023-02-13T14:50:47.272Z,13.33
2023-02-13T14:53:23.615Z,15.90
2023-02-13T14:55:57.809Z,13.27
2023-02-13T14:58:30.290Z,16.70
2023-02-13T15:01:03.676Z,15.43
2023-02-13T15:03:38.647Z,15.17
2023-02-13T15:06:14.610Z,15.50
2023-02-13T15:08:46.970Z,17.20
2023-02-13T15:11:35.877Z,15.87
2023-02-13T15:14:21.460Z,14.13
2023-02-13T15:16:53.886Z,14.73
2023-02-13T15:19:23.511Z,12.23
2023-02-13T15:21:56.357Z,13.67
2023-02-13T15:24:25.335Z,14.13
2023-02-13T15:27:03.790Z,11.03
2023-02-13T15:29:47.673Z,14.60
2023-02-13T15:32:21.488Z,14.23
2023-02-13T15:34:49.991Z,14.67
2023-02-13T15:37:24.522Z,14.60
2023-02-13T15:39:52.610Z,8.40
2023-02-13T15:42:20.850Z,9.50
2023-02-13T15:44:51.890Z,8.27
2023-02-13T15:47:27.564Z,9.47
2023-02-13T15:49:55.977Z,10.30
2023-02-13T15:52:32.141Z,11.63
2023-02-13T15:55:00.492Z,10.70
2023-02-13T15:57:29.438Z,11.47
2023-02-13T15:59:59.677Z,11.23
2023-02-13T16:02:34.727Z,11.87
2023-02-13T16:05:03.379Z,12.20
2023-02-13T16:07:47.892Z,12.67
2023-02-13T16:10:16.221Z,13.87
2023-02-13T16:12:47.646Z,16.23
2023-02-13T16:15:19.244Z,14.20
2023-02-13T16:17:48.652Z,15.83
2023-02-13T16:20:21.643Z,16.60
2023-02-13T16:22:54.313Z,15.77
2023-02-13T16:25:28.425Z,17.13
2023-02-13T16:27:59.419Z,16.70
2023-02-13T16:30:33.781Z,16.30
2023-02-13T16:33:23.420Z,17.13
2023-02-13T16:35:55.144Z,19.27
2023-02-13T16:38:31.025Z,21.87
2023-02-13T16:41:00.881Z,24.00
2023-02-13T16:43:40.984Z,23.43
2023-02-13T16:46:25.659Z,23.73
2023-02-13T16:49:10.969Z,24.40
2023-02-13T16:51:41.481Z,22.27
2023-02-13T16:54:30.332Z,22.97
2023-02-13T16:57:00.272Z,25.57
2023-02-13T16:59:33.669Z,23.47
2023-02-13T17:02:23.100Z,23.37
2023-02-13T17:04:54.015Z,22.40
2023-02-13T17:07:24.922Z,21.73
2023-02-13T17:10:02.453Z,21.33
2023-02-13T17:12:32.498Z,22.10
2023-02-13T17:15:00.931Z,22.93
2023-02-13T17:17:30.364Z,21.30
2023-02-13T17:19:59.148Z,21.40
2023-02-13T17:22:35.930Z,20.60
2023-02-13T17:25:08.467Z,21.30
2023-02-13T17:27:36.504Z,20.50
2023-02-13T17:30:04.828Z,25.10
2023-02-13T17:32:32.966Z,20.63
2023-02-13T17:35:00.968Z,19.87
2023-02-13T17:37:30.108Z,19.20
2023-02-13T17:39:58.107Z,22.20
2023-02-13T17:42:29.614Z,20.67
2023-02-13T17:44:59.498Z,18.43
2023-02-13T17:47:30.274Z,18.73
2023-02-13T17:50:08.899Z,19.17
2023-02-13T17:52:38.499Z,18.77
2023-02-13T17:55:08.443Z,19.90
2023-02-13T17:57:37.762Z,21.10
2023-02-13T18:00:06.793Z,19.83
2023-02-13T18:02:35.168Z,18.63
2023-02-13T18:05:03.696Z,19.23
2023-02-13T18:07:31.693Z,18.60
2023-02-13T18:09:59.672Z,19.40
2023-02-13T18:12:27.725Z,20.03
2023-02-13T18:14:57.083Z,21.33
2023-02-13T18:17:25.013Z,21.17
2023-02-13T18:19:52.977Z,20.53
2023-02-13T18:22:20.966Z,20.23
2023-02-13T18:24:49.036Z,19.47
2023-02-13T18:27:17.292Z,18.73
2023-02-13T18:29:45.329Z,20.43
2023-02-13T18:32:14.770Z,22.63
2023-02-13T18:34:42.875Z,23.57
2023-02-13T18:37:10.999Z,23.47
2023-02-13T18:39:38.973Z,22.13
2023-02-13T18:42:07.203Z,23.00
2023-02-13T18:44:35.211Z,25.67
2023-02-13T18:47:03.193Z,26.57
2023-02-13T18:49:32.698Z,26.57
2023-02-13T18:52:01.601Z,26.30
2023-02-13T18:54:29.532Z,27.50
2023-02-13T18:56:57.606Z,24.77
2023-02-13T18:59:25.542Z,25.40
2023-02-13T19:01:53.672Z,29.03
2023-02-13T19:04:21.662Z,25.77
2023-02-13T19:06:51.117Z,27.57
2023-02-13T19:09:19.130Z,28.00
2023-02-13T19:11:48.571Z,26.77
2023-02-13T19:14:16.923Z,29.83
2023-02-13T19:16:44.885Z,33.33
2023-02-13T19:19:12.974Z,28.97
2023-02-13T19:21:41.077Z,26.10
2023-02-13T19:24:15.263Z,25.77
2023-02-13T19:26:44.616Z,27.37
2023-02-13T19:29:12.625Z,25.13
2023-02-13T19:31:41.435Z,26.00
2023-02-13T19:34:09.493Z,27.17
2023-02-13T19:36:37.501Z,27.67
2023-02-13T19:39:08.292Z,29.67
2023-02-13T19:41:39.632Z,26.03
2023-02-13T19:44:08.743Z,26.00
2023-02-13T19:46:37.288Z,25.53
2023-02-13T19:49:06.021Z,24.33
2023-02-13T19:51:35.697Z,23.00
2023-02-13T19:54:05.357Z,23.27
2023-02-13T19:56:35.129Z,23.30
2023-02-13T19:59:04.622Z,23.57
2023-02-13T20:01:32.630Z,25.67
2023-02-13T20:04:00.834Z,24.30
2023-02-13T20:06:33.050Z,24.47
2023-02-13T20:09:02.090Z,23.27
2023-02-13T20:11:30.600Z,23.07
2023-02-13T20:14:00.730Z,24.30
2023-02-13T20:16:33.008Z,25.13
2023-02-13T20:19:03.674Z,26.37
2023-02-13T20:21:33.155Z,28.23
2023-02-13T20:24:02.917Z,29.93
2023-02-13T20:26:31.165Z,29.23
2023-02-13T20:28:59.726Z,28.20
2023-02-13T20:31:30.508Z,26.60
2023-02-13T20:33:59.197Z,27.60
2023-02-13T20:36:29.206Z,27.93
2023-02-13T20:38:59.639Z,29.70
2023-02-13T20:41:30.216Z,27.97
2023-02-13T20:44:00.199Z,27.93
2023-02-13T20:46:30.693Z,28.67
2023-02-13T20:48:58.940Z,29.53
2023-02-13T20:51:26.970Z,28.23
2023-02-13T20:53:56.513Z,28.17
2023-02-13T20:56:26.422Z,28.57
2023-02-13T20:58:56.679Z,32.30
2023-02-13T21:01:26.930Z,32.40
2023-02-13T21:03:57.414Z,31.93
2023-02-13T21:06:27.815Z,31.80
2023-02-13T21:08:56.237Z,29.93
2023-02-13T21:11:25.040Z,31.30
2023-02-13T21:13:53.100Z,30.50
2023-02-13T21:16:23.458Z,29.50
2023-02-13T21:18:53.170Z,28.07
2023-02-13T21:21:24.238Z,28.97
2023-02-13T21:23:54.155Z,27.53
2023-02-13T21:26:22.442Z,27.23
2023-02-13T21:28:51.850Z,28.23
2023-02-13T21:31:23.897Z,27.20
2023-02-13T21:33:52.020Z,28.70
2023-02-13T21:36:19.969Z,28.43
2023-02-13T21:38:49.330Z,26.03
2023-02-13T21:41:19.189Z,26.07
2023-02-13T21:43:47.577Z,26.33
2023-02-13T21:46:17.679Z,25.57
2023-02-13T21:48:46.700Z,25.43
2023-02-13T21:51:16.409Z,24.90
2023-02-13T21:53:45.072Z,25.43
2023-02-13T21:56:16.594Z,26.70
2023-02-13T21:58:45.737Z,28.17
2023-02-13T22:01:26.010Z,26.73
2023-02-13T22:03:55.472Z,25.73
2023-02-13T22:06:24.013Z,27.27
2023-02-13T22:08:57.583Z,27.97
2023-02-13T22:11:27.616Z,28.43
2023-02-13T22:13:57.504Z,27.40
2023-02-13T22:16:25.615Z,30.00
2023-02-13T22:18:53.733Z,28.33
2023-02-13T22:21:23.956Z,28.83
2023-02-13T22:23:52.867Z,29.70
2023-02-13T22:26:22.865Z,31.00
2023-02-13T22:28:53.085Z,29.33
2023-02-13T22:31:24.877Z,29.30
2023-02-13T22:34:09.104Z,31.27
2023-02-13T22:36:39.552Z,32.27
2023-02-13T22:39:08.670Z,30.67
2023-02-13T22:41:36.765Z,31.17
2023-02-13T22:44:06.658Z,31.40
2023-02-13T22:46:35.624Z,32.17
2023-02-13T22:49:03.731Z,32.43
2023-02-13T22:51:35.019Z,32.47
2023-02-13T22:54:03.883Z,32.50
2023-02-13T22:56:32.938Z,31.07
2023-02-13T22:59:01.245Z,30.73
2023-02-13T23:01:30.934Z,31.67
2023-02-13T23:03:59.595Z,31.90
2023-02-13T23:06:28.546Z,34.70
2023-02-13T23:08:57.172Z,38.33
2023-02-13T23:11:44.584Z,34.57
2023-02-13T23:14:13.287Z,34.80
2023-02-13T23:17:00.754Z,34.97
2023-02-13T23:19:30.080Z,31.73
2023-02-13T23:21:58.345Z,31.77
2023-02-13T23:24:26.374Z,29.10
2023-02-13T23:26:54.381Z,28.70
2023-02-13T23:29:22.366Z,30.07
2023-02-13T23:31:51.850Z,28.60
2023-02-13T23:34:20.418Z,29.57
2023-02-13T23:36:48.473Z,27.60
2023-02-13T23:39:16.464Z,27.20
2023-02-13T23:41:44.481Z,23.63
2023-02-13T23:44:12.438Z,24.00
2023-02-13T23:46:40.384Z,21.63
2023-02-13T23:49:09.782Z,23.10
2023-02-13T23:51:37.733Z,22.23
2023-02-13T23:54:05.721Z,23.03
2023-02-13T23:56:34.161Z,20.67
2023-02-13T23:59:02.133Z,22.27
